Time;durP1;ratioP1;P1;durP2;ratioP2;P2;SDS_P1;SDS_P2;PMS_P1;PMS_P2;Temp;Humidity;BMP_temperature;BMP_pressure;BME280_temperature;BME280_humidity;BME280_pressure;Samples;Min_cycle;Max_cycle;Signal;HPM_P1;HPM_P2
2023/11/20 00:00:48;;;;;;;12.20;1.42;;;12.50;99.90;;;;;;5052281;28;20029;-57
2023/11/20 00:03:14;;;;;;;6.40;1.17;;;12.40;99.90;;;;;;5048825;28;20040;-59
2023/11/20 00:05:39;;;;;;;7.63;1.10;;;12.40;99.90;;;;;;5047445;28;20035;-61
2023/11/20 00:08:05;;;;;;;4.53;1.25;;;12.40;99.90;;;;;;5047512;28;20067;-60
2023/11/20 00:10:32;;;;;;;8.82;1.08;;;12.30;99.90;;;;;;5045666;28;20037;-58
2023/11/20 00:12:57;;;;;;;15.77;1.88;;;12.30;99.90;;;;;;5051007;28;20112;-61
2023/11/20 00:15:23;;;;;;;10.00;1.55;;;12.30;99.90;;;;;;5050096;28;20123;-62
2023/11/20 00:17:48;;;;;;;12.02;1.65;;;12.30;99.90;;;;;;5047175;28;20025;-57
2023/11/20 00:20:14;;;;;;;15.20;1.58;;;12.30;99.90;;;;;;5044639;28;20036;-60
2023/11/20 00:22:39;;;;;;;6.05;1.05;;;12.20;99.90;;;;;;5049726;28;20032;-60
2023/11/20 00:25:05;;;;;;;16.38;1.60;;;12.20;99.90;;;;;;5051014;28;20075;-59
2023/11/20 00:27:30;;;;;;;12.07;1.70;;;12.10;99.90;;;;;;5046520;28;20044;-58
2023/11/20 00:29:56;;;;;;;12.02;1.50;;;12.00;99.90;;;;;;5047290;28;20403;-58
2023/11/20 00:32:21;;;;;;;11.30;1.17;;;11.90;99.90;;;;;;5051956;28;20029;-60
2023/11/20 00:34:47;;;;;;;9.00;2.08;;;11.90;99.90;;;;;;5049416;28;20029;-61
2023/11/20 00:37:13;;;;;;;12.70;1.60;;;11.80;99.90;;;;;;5048155;28;20029;-59
2023/11/20 00:39:38;;;;;;;10.85;1.85;;;11.80;99.90;;;;;;5051102;28;20033;-59
2023/11/20 00:42:04;;;;;;;22.92;2.10;;;11.80;99.90;;;;;;5049716;28;20043;-61
2023/11/20 00:44:30;;;;;;;14.02;1.65;;;11.90;99.90;;;;;;5045538;28;20033;-59
2023/11/20 00:46:55;;;;;;;14.05;1.83;;;11.90;99.90;;;;;;5047253;28;20029;-59
2023/11/20 00:49:21;;;;;;;11.25;1.55;;;11.90;99.90;;;;;;5055899;28;20021;-60
2023/11/20 00:51:46;;;;;;;9.15;1.50;;;11.90;99.90;;;;;;5047103;28;20025;-58
2023/11/20 00:54:12;;;;;;;13.52;1.70;;;11.90;99.90;;;;;;5047455;28;20514;-55
2023/11/20 00:56:37;;;;;;;15.52;2.05;;;11.90;99.90;;;;;;5049744;28;20491;-57
2023/11/20 00:59:03;;;;;;;17.02;2.30;;;11.90;99.90;;;;;;5043162;28;20052;-57
2023/11/20 01:01:28;;;;;;;11.43;2.05;;;11.90;99.90;;;;;;5050002;28;20068;-56
2023/11/20 01:03:55;;;;;;;5.63;1.48;;;11.90;99.90;;;;;;5041894;28;20090;-58
2023/11/20 01:06:20;;;;;;;9.73;1.73;;;12.00;99.90;;;;;;5047731;28;20024;-58
2023/11/20 01:08:46;;;;;;;11.52;1.27;;;12.00;99.90;;;;;;5050703;28;20051;-56
2023/11/20 01:11:12;;;;;;;21.02;1.90;;;12.00;99.90;;;;;;5047991;28;20025;-60
2023/11/20 01:13:38;;;;;;;12.02;1.40;;;12.10;99.90;;;;;;5046307;28;20063;-60
2023/11/20 01:16:05;;;;;;;13.00;1.55;;;12.00;99.90;;;;;;5046822;28;20033;-60
2023/11/20 01:18:31;;;;;;;7.70;0.98;;;12.10;99.90;;;;;;5051001;28;20039;-57
2023/11/20 01:20:57;;;;;;;10.40;1.42;;;12.10;99.90;;;;;;5048640;28;20445;-60
2023/11/20 01:23:22;;;;;;;7.85;1.40;;;12.20;99.90;;;;;;5050316;28;20104;-60
2023/11/20 01:25:48;;;;;;;7.30;1.30;;;12.20;99.90;;;;;;5048156;28;20060;-59
2023/11/20 01:28:13;;;;;;;6.15;1.20;;;12.20;99.90;;;;;;5050010;28;20030;-59
2023/11/20 01:30:39;;;;;;;11.73;1.60;;;12.20;99.90;;;;;;5041821;28;20483;-61
2023/11/20 01:33:04;;;;;;;6.63;1.10;;;12.30;99.90;;;;;;5048846;28;20033;-60
2023/11/20 01:35:30;;;;;;;10.02;1.70;;;12.20;99.90;;;;;;5043029;28;20044;-60
2023/11/20 01:37:55;;;;;;;8.18;1.10;;;12.30;99.90;;;;;;5047994;28;20032;-59
2023/11/20 01:40:21;;;;;;;9.18;1.33;;;12.30;99.90;;;;;;5049364;28;20044;-59
2023/11/20 01:42:46;;;;;;;11.80;1.00;;;12.30;99.90;;;;;;5043416;28;20036;-60
2023/11/20 01:45:12;;;;;;;15.52;1.88;;;12.40;99.90;;;;;;5047255;28;20391;-59
2023/11/20 01:47:38;;;;;;;9.70;1.55;;;12.40;99.90;;;;;;5043273;28;20507;-59
2023/11/20 01:50:07;;;;;;;9.15;1.58;;;12.40;99.90;;;;;;5048015;28;20037;-59
2023/11/20 01:52:36;;;;;;;6.35;1.33;;;12.40;99.90;;;;;;5051018;28;20036;-58
2023/11/20 01:55:02;;;;;;;9.25;1.58;;;12.40;99.90;;;;;;5047761;28;20036;-60
2023/11/20 01:57:28;;;;;;;12.80;1.27;;;12.30;99.90;;;;;;5047099;28;20021;-59
2023/11/20 01:59:53;;;;;;;12.38;1.33;;;12.20;99.90;;;;;;5049383;28;20540;-58
2023/11/20 02:02:19;;;;;;;8.95;1.27;;;12.10;99.90;;;;;;5044955;28;20033;-60
2023/11/20 02:04:49;;;;;;;16.58;1.92;;;12.00;99.90;;;;;;5043590;28;20025;-60
2023/11/20 02:07:16;;;;;;;9.20;1.40;;;12.00;99.90;;;;;;5053874;28;20025;-59
2023/11/20 02:09:42;;;;;;;6.25;1.10;;;12.00;99.90;;;;;;5055338;28;20040;-59
2023/11/20 02:12:08;;;;;;;11.75;1.50;;;12.00;99.90;;;;;;5055137;28;20437;-58
2023/11/20 02:14:34;;;;;;;8.63;1.30;;;12.00;99.90;;;;;;5052081;28;20025;-59
2023/11/20 02:16:59;;;;;;;8.43;1.38;;;12.00;99.90;;;;;;5051450;28;20017;-58
2023/11/20 02:19:25;;;;;;;6.18;1.10;;;12.00;99.90;;;;;;5052154;28;20502;-58
2023/11/20 02:21:51;;;;;;;12.18;1.80;;;12.00;99.90;;;;;;5053741;28;20032;-56
2023/11/20 02:24:16;;;;;;;12.18;1.80;;;12.00;99.90;;;;;;5047447;28;20062;-58
2023/11/20 02:26:42;;;;;;;7.18;1.50;;;12.00;99.90;;;;;;5050509;28;20029;-56
2023/11/20 02:29:13;;;;;;;6.38;1.40;;;12.00;99.90;;;;;;5051752;28;20033;-61
2023/11/20 02:31:41;;;;;;;10.95;1.20;;;12.00;99.90;;;;;;5055923;28;20029;-59
2023/11/20 02:34:07;;;;;;;4.10;0.90;;;11.90;99.90;;;;;;5060460;28;20021;-59
2023/11/20 02:36:33;;;;;;;9.48;1.67;;;11.90;99.90;;;;;;5058322;28;20378;-59
2023/11/20 02:38:58;;;;;;;12.10;1.27;;;11.90;99.90;;;;;;5058512;28;20025;-58
2023/11/20 02:41:24;;;;;;;9.48;1.63;;;11.90;99.90;;;;;;5050096;28;20040;-60
2023/11/20 02:43:50;;;;;;;9.63;1.13;;;11.90;99.90;;;;;;5044972;28;20041;-58
2023/11/20 02:46:16;;;;;;;6.13;1.38;;;11.80;99.90;;;;;;5049401;28;20032;-58
2023/11/20 02:48:41;;;;;;;9.40;1.42;;;11.80;99.90;;;;;;5050625;28;20561;-59
2023/11/20 02:51:07;;;;;;;9.88;1.88;;;11.80;99.90;;;;;;5051040;28;20497;-59
2023/11/20 02:53:33;;;;;;;7.95;1.33;;;11.70;99.90;;;;;;5050783;28;20021;-61
2023/11/20 02:55:58;;;;;;;11.43;2.05;;;11.80;99.90;;;;;;5051181;28;20025;-59
2023/11/20 02:58:24;;;;;;;11.93;1.50;;;11.70;99.90;;;;;;5047307;28;20033;-60
2023/11/20 03:00:50;;;;;;;9.27;1.40;;;11.70;99.90;;;;;;5052788;28;20024;-61
2023/11/20 03:03:17;;;;;;;6.53;0.85;;;11.70;99.90;;;;;;5053519;28;20013;-61
2023/11/20 03:05:44;;;;;;;10.30;1.38;;;11.70;99.90;;;;;;5048944;28;20064;-59
2023/11/20 03:08:09;;;;;;;9.20;1.27;;;11.70;99.90;;;;;;5050046;28;20108;-61
2023/11/20 03:10:35;;;;;;;10.80;1.60;;;11.70;99.90;;;;;;5053368;28;20139;-60
2023/11/20 03:13:00;;;;;;;6.07;0.88;;;11.70;99.90;;;;;;5049766;28;20021;-61
2023/11/20 03:15:27;;;;;;;5.03;1.10;;;11.80;99.90;;;;;;5050246;28;20030;-60
2023/11/20 03:17:54;;;;;;;10.90;1.05;;;11.80;99.90;;;;;;5049510;28;20049;-59
2023/11/20 03:20:20;;;;;;;8.57;1.38;;;11.80;99.90;;;;;;5049942;28;20083;-56
2023/11/20 03:22:46;;;;;;;8.90;0.85;;;11.80;99.90;;;;;;5053342;28;20050;-58
2023/11/20 03:25:12;;;;;;;8.70;0.95;;;11.80;99.90;;;;;;5049526;28;20129;-59
2023/11/20 03:27:38;;;;;;;6.07;0.85;;;11.80;99.90;;;;;;5053178;28;20028;-60
2023/11/20 03:30:04;;;;;;;12.52;1.05;;;11.70;99.90;;;;;;5052619;28;20044;-60
2023/11/20 03:32:30;;;;;;;4.72;1.00;;;11.80;99.90;;;;;;5051875;28;20063;-60
2023/11/20 03:34:56;;;;;;;7.43;0.80;;;11.80;99.90;;;;;;5046396;28;20052;-57
2023/11/20 03:37:21;;;;;;;3.60;0.60;;;11.80;99.90;;;;;;5050999;28;20039;-57
2023/11/20 03:39:47;;;;;;;10.55;1.05;;;11.80;99.90;;;;;;5050801;28;20071;-61
2023/11/20 03:42:13;;;;;;;11.25;1.00;;;11.80;99.90;;;;;;5056065;28;20021;-58
2023/11/20 03:44:38;;;;;;;9.98;1.85;;;11.80;99.90;;;;;;5052082;28;20071;-57
2023/11/20 03:47:04;;;;;;;4.00;1.13;;;11.80;99.90;;;;;;5048137;28;20593;-60
2023/11/20 03:49:29;;;;;;;5.63;0.90;;;11.80;99.90;;;;;;5050720;28;20020;-59
2023/11/20 03:51:55;;;;;;;7.90;0.80;;;11.80;99.90;;;;;;5051098;28;20425;-60
2023/11/20 03:54:21;;;;;;;5.40;1.00;;;11.80;99.90;;;;;;5051821;28;20435;-58
2023/11/20 03:56:46;;;;;;;5.80;1.60;;;11.90;99.90;;;;;;5049868;28;20033;-58
2023/11/20 03:59:12;;;;;;;2.40;0.80;;;11.90;99.90;;;;;;5054227;28;20074;-59
2023/11/20 04:01:38;;;;;;;11.32;0.82;;;11.90;99.90;;;;;;5053502;28;20036;-55
2023/11/20 04:04:05;;;;;;;6.00;0.95;;;11.90;99.90;;;;;;5051492;28;20032;-61
2023/11/20 04:06:30;;;;;;;6.35;0.80;;;11.90;99.90;;;;;;5048071;28;20032;-59
2023/11/20 04:08:56;;;;;;;4.72;0.85;;;11.90;99.90;;;;;;5049902;28;20028;-58
2023/11/20 04:11:22;;;;;;;8.55;0.95;;;12.00;99.90;;;;;;5049160;28;20490;-59
2023/11/20 04:13:47;;;;;;;9.00;0.90;;;11.90;99.90;;;;;;5045461;28;20103;-59
2023/11/20 04:16:14;;;;;;;6.10;1.20;;;11.90;99.90;;;;;;5051175;28;20017;-60
2023/11/20 04:18:39;;;;;;;4.35;0.70;;;11.80;99.90;;;;;;5050215;28;20027;-62
2023/11/20 04:21:05;;;;;;;8.88;0.77;;;11.80;99.90;;;;;;5046405;28;20024;-58
2023/11/20 04:23:31;;;;;;;6.93;1.30;;;11.80;99.90;;;;;;5055652;28;20024;-60
2023/11/20 04:25:57;;;;;;;4.15;0.70;;;11.70;99.90;;;;;;5046932;28;20017;-59
2023/11/20 04:28:23;;;;;;;1.25;0.80;;;11.70;99.90;;;;;;5050916;28;20621;-56
2023/11/20 04:30:49;;;;;;;5.28;1.02;;;11.70;99.90;;;;;;5047770;28;20025;-57
2023/11/20 04:33:14;;;;;;;6.68;1.30;;;11.70;99.90;;;;;;5047889;28;20394;-62
2023/11/20 04:35:42;;;;;;;5.15;0.88;;;11.70;99.90;;;;;;5052327;28;20371;-61
2023/11/20 04:38:07;;;;;;;6.70;0.82;;;11.70;99.90;;;;;;5051368;28;20028;-59
2023/11/20 04:40:34;;;;;;;8.50;0.88;;;11.60;99.90;;;;;;5051427;28;20032;-56
2023/11/20 04:42:59;;;;;;;9.00;1.13;;;11.70;99.90;;;;;;5050195;28;20021;-60
2023/11/20 04:45:25;;;;;;;3.95;1.02;;;11.70;99.90;;;;;;5051221;28;20390;-56
2023/11/20 04:47:50;;;;;;;2.95;1.15;;;11.70;99.90;;;;;;5045330;28;20083;-62
2023/11/20 04:50:16;;;;;;;8.40;1.08;;;11.70;99.90;;;;;;5054643;28;20491;-59
2023/11/20 04:52:41;;;;;;;10.52;1.55;;;11.70;99.90;;;;;;5051822;28;20021;-60
2023/11/20 04:55:08;;;;;;;5.35;0.98;;;11.70;99.90;;;;;;5049974;28;20028;-59
2023/11/20 04:57:34;;;;;;;7.60;0.98;;;11.70;99.90;;;;;;5047012;28;20029;-60
2023/11/20 05:00:00;;;;;;;5.22;1.20;;;11.70;99.90;;;;;;5049689;28;20021;-60
2023/11/20 05:02:26;;;;;;;2.45;0.80;;;11.70;99.90;;;;;;5045637;28;20055;-62
2023/11/20 05:04:52;;;;;;;6.85;1.17;;;11.70;99.90;;;;;;5048803;28;20487;-61
2023/11/20 05:07:18;;;;;;;6.78;1.05;;;11.70;99.90;;;;;;5049899;28;20035;-61
2023/11/20 05:09:43;;;;;;;7.18;1.20;;;11.70;99.90;;;;;;5043795;28;20029;-61
2023/11/20 05:12:09;;;;;;;8.10;1.42;;;11.60;99.90;;;;;;5049531;28;20029;-60
2023/11/20 05:14:34;;;;;;;7.43;1.02;;;11.70;99.90;;;;;;5047104;28;20033;-61
2023/11/20 05:17:00;;;;;;;9.43;1.13;;;11.70;99.90;;;;;;5049134;28;20025;-59
2023/11/20 05:19:26;;;;;;;7.57;1.30;;;11.60;99.90;;;;;;5048906;28;20048;-61
2023/11/20 05:21:52;;;;;;;7.70;1.42;;;11.70;99.90;;;;;;5042602;28;20053;-57
2023/11/20 05:24:17;;;;;;;5.18;1.52;;;11.70;99.90;;;;;;5049312;28;20256;-58
2023/11/20 05:26:43;;;;;;;5.85;1.05;;;11.70;99.90;;;;;;5045717;28;20041;-56
2023/11/20 05:29:11;;;;;;;7.78;1.45;;;11.60;99.90;;;;;;5046028;28;20108;-59
2023/11/20 05:31:37;;;;;;;10.82;1.17;;;11.60;99.90;;;;;;5049547;28;20066;-58
2023/11/20 05:34:03;;;;;;;7.20;1.20;;;11.60;99.90;;;;;;5050751;28;20029;-61
2023/11/20 05:36:28;;;;;;;5.80;1.10;;;11.60;99.90;;;;;;5048326;28;20021;-62
2023/11/20 05:38:54;;;;;;;8.82;1.40;;;11.50;99.90;;;;;;5045655;28;20025;-59
2023/11/20 05:41:19;;;;;;;8.38;1.67;;;11.50;99.90;;;;;;5047338;28;20495;-60
2023/11/20 05:43:45;;;;;;;9.25;1.23;;;11.50;99.90;;;;;;5048044;28;20034;-59
2023/11/20 05:46:12;;;;;;;15.35;1.63;;;11.50;99.90;;;;;;5045925;28;20033;-59
2023/11/20 05:48:38;;;;;;;9.23;1.60;;;11.60;99.90;;;;;;5041618;28;20053;-61
2023/11/20 05:51:04;;;;;;;13.30;2.05;;;11.60;99.90;;;;;;5043482;28;20122;-61
2023/11/20 05:53:29;;;;;;;15.10;1.70;;;11.50;99.90;;;;;;5044772;28;20515;-57
2023/11/20 05:55:55;;;;;;;15.13;2.45;;;11.50;99.90;;;;;;5043904;28;20048;-58
2023/11/20 05:58:20;;;;;;;20.50;3.20;;;11.50;99.90;;;;;;5044667;28;20032;-56
2023/11/20 06:00:46;;;;;;;25.90;2.13;;;11.40;99.90;;;;;;5048120;28;20471;-59
2023/11/20 06:03:11;;;;;;;14.88;1.63;;;11.40;99.90;;;;;;5044632;28;20112;-57
2023/11/20 06:05:37;;;;;;;15.55;1.80;;;11.40;99.90;;;;;;5041998;28;20032;-57
2023/11/20 06:08:03;;;;;;;17.60;1.98;;;11.40;99.90;;;;;;5044571;28;20098;-59
2023/11/20 06:10:28;;;;;;;11.27;2.30;;;11.40;99.90;;;;;;5045987;28;20033;-60
2023/11/20 06:12:54;;;;;;;16.83;2.05;;;11.50;99.90;;;;;;5044159;28;20035;-62
2023/11/20 06:15:19;;;;;;;26.60;2.75;;;11.50;99.90;;;;;;5049384;28;20030;-61
2023/11/20 06:17:45;;;;;;;20.00;2.08;;;11.40;99.90;;;;;;5045882;28;20396;-61
2023/11/20 06:20:12;;;;;;;15.55;2.05;;;11.50;99.90;;;;;;5048065;28;20427;-59
2023/11/20 06:22:39;;;;;;;18.10;2.05;;;11.50;99.90;;;;;;5045244;28;20079;-61
2023/11/20 06:25:06;;;;;;;18.65;3.00;;;11.40;99.90;;;;;;5047204;28;20013;-61
2023/11/20 06:27:32;;;;;;;14.75;2.17;;;11.40;99.90;;;;;;5045578;28;20503;-62
2023/11/20 06:29:58;;;;;;;16.20;2.28;;;11.40;99.90;;;;;;5048417;28;20116;-62
2023/11/20 06:32:24;;;;;;;16.50;2.63;;;11.50;99.90;;;;;;5046478;28;20029;-59
2023/11/20 06:34:50;;;;;;;16.02;2.70;;;11.50;99.90;;;;;;5043390;28;20076;-61
2023/11/20 06:37:16;;;;;;;11.80;2.10;;;11.40;99.90;;;;;;5045052;28;20025;-57
2023/11/20 06:39:42;;;;;;;21.95;2.95;;;11.30;99.90;;;;;;5048050;28;20112;-61
2023/11/20 06:42:08;;;;;;;13.45;1.95;;;11.30;99.90;;;;;;5047106;28;20384;-60
2023/11/20 06:44:37;;;;;;;15.27;2.35;;;11.30;99.90;;;;;;5048471;28;20037;-59
2023/11/20 06:47:03;;;;;;;14.63;2.15;;;11.30;99.90;;;;;;5047026;28;20017;-61
2023/11/20 06:49:28;;;;;;;28.55;3.22;;;11.30;99.90;;;;;;5046477;28;20044;-60
2023/11/20 06:51:54;;;;;;;16.35;2.08;;;11.30;99.90;;;;;;5046122;28;20412;-59
2023/11/20 06:54:19;;;;;;;10.45;2.08;;;11.40;99.90;;;;;;5047655;28;20036;-60
2023/11/20 06:56:46;;;;;;;15.55;2.08;;;11.40;99.90;;;;;;5054909;28;20021;-61
2023/11/20 06:59:11;;;;;;;15.30;2.35;;;11.40;99.90;;;;;;5052316;28;20118;-61
2023/11/20 07:01:44;;;;;;;15.52;2.05;;;11.40;99.90;;;;;;5051500;28;20510;-61
2023/11/20 07:04:09;;;;;;;22.80;2.75;;;11.30;99.90;;;;;;5051934;28;20449;-60
2023/11/20 07:06:37;;;;;;;16.00;2.15;;;11.30;99.90;;;;;;5050091;28;20033;-59
2023/11/20 07:09:11;;;;;;;16.50;2.10;;;11.30;99.90;;;;;;5054426;28;20475;-58
2023/11/20 07:11:37;;;;;;;22.33;2.80;;;11.30;99.90;;;;;;5056183;28;20029;-60
2023/11/20 07:14:02;;;;;;;25.17;2.30;;;11.30;99.90;;;;;;5052624;28;20041;-59
2023/11/20 07:16:28;;;;;;;14.80;2.08;;;11.30;99.90;;;;;;5056208;28;20028;-58
2023/11/20 07:18:54;;;;;;;19.98;2.28;;;11.30;99.90;;;;;;5052327;28;20044;-61
2023/11/20 07:21:20;;;;;;;21.85;2.10;;;11.30;99.90;;;;;;5051485;28;20033;-60
2023/11/20 07:23:45;;;;;;;18.17;1.90;;;11.30;99.90;;;;;;5050075;28;20535;-59
2023/11/20 07:26:17;;;;;;;14.05;1.83;;;11.20;99.90;;;;;;5053010;28;20096;-61
2023/11/20 07:28:42;;;;;;;15.15;1.75;;;11.20;99.90;;;;;;5051366;28;20111;-61
2023/11/20 07:31:08;;;;;;;16.95;2.35;;;11.30;99.90;;;;;;5048733;28;20120;-62
2023/11/20 07:33:33;;;;;;;18.65;2.22;;;11.30;99.90;;;;;;5052063;28;20075;-58
2023/11/20 07:35:59;;;;;;;12.30;2.03;;;11.30;99.90;;;;;;5048358;28;20059;-59
2023/11/20 07:38:25;;;;;;;18.20;2.10;;;11.30;99.90;;;;;;5047968;28;20100;-62
2023/11/20 07:40:51;;;;;;;15.13;2.50;;;11.30;99.90;;;;;;5040242;28;20017;-61
2023/11/20 07:43:16;;;;;;;13.80;2.30;;;11.30;99.90;;;;;;5042106;28;20025;-62
2023/11/20 07:45:42;;;;;;;25.58;3.05;;;11.40;99.90;;;;;;5038872;28;20037;-62
2023/11/20 07:48:09;;;;;;;22.95;2.90;;;11.40;99.90;;;;;;5045001;28;20407;-62
2023/11/20 07:50:35;;;;;;;15.38;2.55;;;11.40;99.90;;;;;;5041379;28;20570;-63
2023/11/20 07:53:00;;;;;;;22.45;2.50;;;11.40;99.90;;;;;;5043769;28;20040;-63
2023/11/20 07:55:26;;;;;;;17.25;2.15;;;11.30;99.90;;;;;;5041728;28;20473;-64
2023/11/20 07:57:52;;;;;;;16.50;1.95;;;11.30;99.90;;;;;;5038619;28;20026;-62
2023/11/20 08:00:18;;;;;;;11.38;1.80;;;11.40;99.90;;;;;;5046096;28;20021;-63
2023/11/20 08:02:45;;;;;;;20.63;2.40;;;11.40;99.90;;;;;;5047444;28;20118;-61
2023/11/20 08:05:12;;;;;;;31.73;2.47;;;11.50;99.90;;;;;;5046848;28;20166;-63
2023/11/20 08:07:37;;;;;;;17.70;2.72;;;11.40;99.90;;;;;;5049392;28;20040;-63
2023/11/20 08:10:04;;;;;;;21.80;2.45;;;11.40;99.90;;;;;;5049321;28;20033;-63
2023/11/20 08:12:30;;;;;;;23.30;2.13;;;11.40;99.90;;;;;;5040876;28;20036;-63
2023/11/20 08:14:57;;;;;;;25.45;2.45;;;11.40;99.90;;;;;;5047160;28;20020;-61
2023/11/20 08:17:22;;;;;;;16.98;2.25;;;11.40;99.90;;;;;;5047796;28;20032;-63
2023/11/20 08:19:48;;;;;;;12.25;2.15;;;11.40;99.90;;;;;;5047806;28;20029;-60
2023/11/20 08:22:15;;;;;;;22.65;2.80;;;11.50;99.90;;;;;;5048963;28;20035;-62
2023/11/20 08:24:43;;;;;;;18.02;2.03;;;11.50;99.90;;;;;;5046754;28;20543;-62
2023/11/20 08:27:09;;;;;;;19.15;3.35;;;11.60;99.90;;;;;;5046913;28;20039;-60
2023/11/20 08:29:35;;;;;;;18.08;1.85;;;11.60;99.90;;;;;;5047982;28;20028;-62
2023/11/20 08:32:00;;;;;;;25.02;2.58;;;11.60;99.90;;;;;;5052658;28;20029;-62
2023/11/20 08:34:26;;;;;;;14.88;2.17;;;11.60;99.90;;;;;;5053060;28;20021;-63
2023/11/20 08:36:52;;;;;;;19.75;2.45;;;11.60;99.90;;;;;;5044234;28;20556;-62
2023/11/20 08:39:21;;;;;;;22.25;2.38;;;11.70;99.90;;;;;;5049708;28;20033;-61
2023/11/20 08:41:47;;;;;;;14.00;2.03;;;11.80;99.90;;;;;;5047278;28;20053;-62
2023/11/20 08:44:13;;;;;;;22.80;2.58;;;11.90;99.90;;;;;;5050069;28;20055;-62
2023/11/20 08:46:38;;;;;;;12.93;1.90;;;11.90;99.90;;;;;;5042203;28;20538;-64
2023/11/20 08:49:06;;;;;;;18.40;2.67;;;11.90;99.90;;;;;;5040646;28;20120;-62
2023/11/20 08:51:33;;;;;;;24.88;2.58;;;11.90;99.90;;;;;;5045066;28;20098;-63
2023/11/20 08:53:59;;;;;;;10.43;1.88;;;12.00;99.90;;;;;;5045768;28;20139;-62
2023/11/20 08:56:25;;;;;;;12.32;1.90;;;12.10;99.90;;;;;;5050378;28;20024;-62
2023/11/20 08:58:51;;;;;;;13.20;1.85;;;12.10;99.90;;;;;;5048205;28;20652;-64
2023/11/20 09:01:16;;;;;;;9.57;2.20;;;12.10;99.90;;;;;;5046787;28;20082;-63
2023/11/20 09:03:42;;;;;;;14.52;1.77;;;12.10;99.90;;;;;;5048137;28;20050;-62
2023/11/20 09:06:08;;;;;;;15.30;1.60;;;12.20;99.90;;;;;;5045866;28;20298;-62
2023/11/20 09:08:33;;;;;;;12.40;1.92;;;12.20;99.90;;;;;;5044743;28;20067;-63
2023/11/20 09:10:59;;;;;;;15.80;2.40;;;12.20;99.90;;;;;;5044584;28;20029;-61
2023/11/20 09:13:24;;;;;;;11.38;1.85;;;12.30;99.90;;;;;;5044788;28;20029;-62
2023/11/20 09:15:50;;;;;;;8.73;1.23;;;12.40;99.90;;;;;;5046685;28;20033;-63
2023/11/20 09:18:15;;;;;;;13.57;1.58;;;12.40;99.90;;;;;;5046223;28;20021;-61
2023/11/20 09:20:41;;;;;;;13.23;1.42;;;12.40;99.90;;;;;;5043326;28;20446;-62
2023/11/20 09:23:06;;;;;;;8.55;1.40;;;12.40;99.90;;;;;;5041984;28;20021;-63
2023/11/20 09:25:32;;;;;;;7.45;1.50;;;12.40;99.90;;;;;;5050047;28;20483;-62
2023/11/20 09:27:58;;;;;;;14.35;2.15;;;12.30;99.90;;;;;;5046627;28;20037;-61
2023/11/20 09:30:24;;;;;;;13.32;1.73;;;12.30;99.90;;;;;;5042906;28;20429;-63
2023/11/20 09:32:50;;;;;;;11.98;1.85;;;12.30;99.90;;;;;;5049677;28;20037;-64
2023/11/20 09:35:16;;;;;;;7.47;1.58;;;12.30;99.90;;;;;;5048409;28;20060;-63
2023/11/20 09:37:42;;;;;;;8.23;1.85;;;12.30;99.90;;;;;;5045895;28;20025;-60
2023/11/20 09:40:08;;;;;;;6.50;1.55;;;12.30;99.90;;;;;;5047439;28;20025;-61
2023/11/20 09:42:35;;;;;;;8.68;1.33;;;12.30;99.90;;;;;;5048400;28;20442;-63
2023/11/20 09:45:04;;;;;;;15.48;1.63;;;12.30;99.90;;;;;;5046708;28;20526;-62
2023/11/20 09:47:30;;;;;;;21.05;1.50;;;12.20;99.90;;;;;;5046684;28;20163;-62
2023/11/20 09:49:57;;;;;;;8.35;1.23;;;12.00;99.90;;;;;;5047328;28;20082;-63
2023/11/20 09:52:26;;;;;;;15.70;1.55;;;12.00;99.90;;;;;;5042907;28;20025;-63
2023/11/20 09:54:57;;;;;;;8.77;1.48;;;12.00;99.90;;;;;;5047272;28;20096;-62
2023/11/20 09:57:26;;;;;;;14.38;1.42;;;12.00;99.90;;;;;;5048273;28;20032;-64
2023/11/20 09:59:52;;;;;;;14.63;1.48;;;12.10;99.90;;;;;;5047343;28;20071;-63
2023/11/20 10:02:20;;;;;;;12.55;1.85;;;12.10;99.90;;;;;;5043743;28;20561;-64
2023/11/20 10:04:53;;;;;;;5.13;1.20;;;12.20;99.90;;;;;;5048395;28;20086;-64
2023/11/20 10:07:23;;;;;;;10.75;1.42;;;12.20;99.90;;;;;;5041697;28;20025;-63
2023/11/20 10:09:54;;;;;;;12.70;1.63;;;12.30;99.90;;;;;;5041810;28;20021;-64
2023/11/20 10:12:20;;;;;;;5.25;1.33;;;12.30;99.90;;;;;;5042053;28;20026;-63
2023/11/20 10:14:46;;;;;;;7.70;1.30;;;12.40;99.90;;;;;;5043289;28;20098;-63
2023/11/20 10:17:12;;;;;;;9.52;1.52;;;12.40;99.90;;;;;;5048101;28;20492;-63
2023/11/20 10:19:38;;;;;;;11.05;1.70;;;12.50;99.90;;;;;;5049154;28;20021;-63
2023/11/20 10:22:07;;;;;;;8.88;1.52;;;12.40;99.90;;;;;;5044972;28;20402;-64
2023/11/20 10:24:32;;;;;;;6.97;1.45;;;12.50;99.90;;;;;;5046036;28;20025;-63
2023/11/20 10:26:58;;;;;;;9.73;1.83;;;12.50;99.90;;;;;;5048336;28;20179;-65
2023/11/20 10:29:25;;;;;;;6.63;1.23;;;12.50;99.90;;;;;;5038031;28;20108;-63
2023/11/20 10:31:50;;;;;;;9.40;1.60;;;12.50;99.90;;;;;;5046677;28;20078;-64
2023/11/20 10:34:19;;;;;;;12.65;1.88;;;12.40;99.90;;;;;;5046952;28;20032;-63
2023/11/20 10:37:08;;;;;;;10.15;1.15;;;12.30;99.90;;;;;;5051589;28;20042;-61
2023/11/20 10:39:35;;;;;;;10.60;1.00;;;12.20;99.90;;;;;;5049055;28;20025;-63
2023/11/20 10:42:00;;;;;;;7.10;0.90;;;12.10;99.90;;;;;;5049312;28;20151;-63
2023/11/20 10:44:26;;;;;;;8.75;1.27;;;12.00;99.90;;;;;;5049832;28;20144;-63
2023/11/20 10:46:53;;;;;;;8.93;1.35;;;12.00;99.90;;;;;;5045370;28;20025;-64
2023/11/20 10:49:21;;;;;;;5.47;1.27;;;12.00;99.90;;;;;;5048240;28;20036;-62
2023/11/20 10:51:57;;;;;;;12.93;1.10;;;11.80;99.90;;;;;;5051672;28;20025;-62
2023/11/20 10:54:30;;;;;;;4.90;1.05;;;11.90;99.90;;;;;;5047198;28;20025;-64
2023/11/20 10:57:04;;;;;;;11.18;1.10;;;11.90;99.90;;;;;;5043537;28;20531;-64
2023/11/20 10:59:34;;;;;;;8.63;1.05;;;11.90;99.90;;;;;;5046559;28;20050;-64
2023/11/20 11:02:01;;;;;;;7.55;1.08;;;11.90;99.90;;;;;;5046464;28;20061;-63
2023/11/20 11:04:31;;;;;;;11.07;0.93;;;11.90;99.90;;;;;;5051084;28;20036;-62
2023/11/20 11:07:01;;;;;;;5.15;1.20;;;12.20;99.90;;;;;;5044180;28;20738;-62
2023/11/20 11:09:30;;;;;;;5.68;1.13;;;12.20;99.90;;;;;;5047847;28;20025;-63
2023/11/20 11:11:58;;;;;;;9.15;1.40;;;12.20;99.90;;;;;;5044182;28;20545;-64
2023/11/20 11:14:23;;;;;;;3.92;0.90;;;12.30;99.90;;;;;;5044805;28;20028;-64
2023/11/20 11:17:05;;;;;;;15.15;1.25;;;12.10;99.90;;;;;;5045460;28;20032;-63
2023/11/20 11:19:37;;;;;;;5.80;0.93;;;12.20;99.90;;;;;;5045894;28;20373;-64
2023/11/20 11:22:06;;;;;;;9.88;1.13;;;12.30;99.90;;;;;;5042681;28;20028;-65
2023/11/20 11:24:32;;;;;;;4.70;1.30;;;12.20;99.90;;;;;;5049823;28;20036;-65
2023/11/20 11:27:09;;;;;;;4.28;1.20;;;12.30;99.90;;;;;;5043994;28;20108;-65
2023/11/20 11:29:38;;;;;;;13.10;1.33;;;12.30;99.90;;;;;;5049235;28;20033;-64
2023/11/20 11:32:31;;;;;;;2.15;1.05;;;12.30;99.90;;;;;;5045749;28;20025;-64
2023/11/20 11:35:13;;;;;;;6.88;1.02;;;12.30;99.90;;;;;;5041284;28;20491;-66
2023/11/20 11:38:11;;;;;;;9.98;1.20;;;12.10;99.90;;;;;;5047473;28;20038;-65
2023/11/20 11:40:46;;;;;;;8.90;1.17;;;12.20;99.90;;;;;;5048990;28;20033;-65
2023/11/20 11:43:18;;;;;;;7.80;1.50;;;12.00;99.90;;;;;;5046434;28;20569;-65
2023/11/20 11:45:47;;;;;;;7.07;1.10;;;11.90;99.90;;;;;;5047247;28;20033;-63
2023/11/20 11:48:13;;;;;;;6.22;1.48;;;11.70;99.90;;;;;;5050348;28;20094;-64
2023/11/20 11:50:40;;;;;;;4.38;0.80;;;11.50;99.90;;;;;;5049878;28;20498;-65
2023/11/20 11:53:10;;;;;;;4.05;1.10;;;11.40;99.90;;;;;;5040579;28;20483;-64
2023/11/20 11:55:42;;;;;;;4.60;0.88;;;11.30;99.90;;;;;;5046546;28;20049;-65
2023/11/20 11:58:13;;;;;;;10.07;1.15;;;11.60;99.90;;;;;;5049073;28;20013;-66
2023/11/20 12:00:39;;;;;;;4.72;1.13;;;11.80;99.90;;;;;;5048235;28;20033;-65
2023/11/20 12:03:14;;;;;;;5.82;1.00;;;11.90;99.90;;;;;;5043623;28;20399;-64
2023/11/20 12:06:13;;;;;;;5.20;0.73;;;12.20;99.90;;;;;;5046397;28;20471;-65
2023/11/20 12:08:39;;;;;;;7.80;1.10;;;12.10;99.90;;;;;;5043021;28;20136;-64
2023/11/20 12:11:05;;;;;;;2.90;0.70;;;12.30;99.90;;;;;;5049041;28;20033;-64
2023/11/20 12:13:31;;;;;;;5.20;0.90;;;12.30;99.90;;;;;;5040563;28;20072;-65
2023/11/20 12:16:06;;;;;;;10.52;3.22;;;12.10;99.90;;;;;;5050266;28;20392;-65
2023/11/20 12:18:34;;;;;;;8.27;1.10;;;12.10;99.90;;;;;;5045068;28;20017;-65
2023/11/20 12:21:08;;;;;;;1.80;0.70;;;11.80;99.90;;;;;;5049133;28;20025;-64
2023/11/20 12:23:39;;;;;;;1.70;0.75;;;11.90;99.90;;;;;;5044847;28;20025;-65
2023/11/20 12:26:12;;;;;;;1.25;0.57;;;11.90;99.90;;;;;;5047802;28;20079;-64
2023/11/20 12:28:40;;;;;;;3.20;0.90;;;12.00;99.90;;;;;;5049767;28;20048;-65
2023/11/20 12:31:10;;;;;;;3.00;0.93;;;12.10;99.90;;;;;;5042052;28;20115;-65
2023/11/20 12:33:41;;;;;;;4.03;1.00;;;11.90;99.90;;;;;;5048615;28;20029;-65
2023/11/20 12:36:08;;;;;;;4.82;0.90;;;12.00;99.90;;;;;;5053834;28;20013;-65
2023/11/20 12:38:36;;;;;;;4.07;1.25;;;11.80;99.90;;;;;;5044592;28;20641;-66